Kiso — JD2019 — position and weather

sailwx.info

Track history (hours):
 
Tides and Currents Weather Stations Pressure Air Temp Water Temp Dewpoint Dewpoint Depression Visibility Wind Speed Wind Dir Waves Ship Positions

Kiso

Last reported at 2017-Dec-15 22:14 UTC. Time now 2017-Dec-16 12:42 UTC.
Position N 41°33' E 141°50'.

Length 200 m; draft 6.7 m.

Type: Passenger vessel. MMSI: 431200673.

Date/timePositionNaut miles runAvg speedWind from/ knotsBaromVisibWave heightAir tempDewpointWater temp
2017-Dec-15 22:14N 41°33' E 141°50'43115.5
2017-Dec-14 18:29N 34°37' E 139°27'1120.0
2017-Dec-14 17:56N 34°35' E 139°14'920.4
2017-Dec-14 17:29N 34°32' E 139°04'1020.6
2017-Dec-14 17:00N 34°31' E 138°52'1121.0
2017-Dec-14 16:30N 34°31' E 138°39'1021.2
2017-Dec-14 16:00N 34°30' E 138°26'2119.9
2017-Dec-14 14:57N 34°29' E 138°01'919.5
2017-Dec-14 14:30N 34°30' E 137°50'1019.2
2017-Dec-14 14:00N 34°29' E 137°39'2819.2
2017-Dec-14 12:32N 34°31' E 137°04'119.3
2017-Dec-14 12:27N 34°32' E 137°03'1115.3
2017-Dec-14 11:46N 34°38' E 136°52'520.2
2017-Dec-14 11:30N 34°42' E 136°48'1020.0
2017-Dec-14 11:01N 34°52' E 136°45'1019.2
2017-Dec-14 10:30N 35°00' E 136°50'3 6.6
2017-Dec-14 10:01N 35°04' E 136°51'0 0.0
2017-Dec-14 09:31N 35°04' E 136°51'0 0.0
2017-Dec-14 08:56N 35°04' E 136°51'0 0.0
2017-Dec-14 08:26N 35°04' E 136°51'0 0.0
2017-Dec-14 07:56N 35°04' E 136°51'0 0.0
2017-Dec-14 07:26N 35°04' E 136°51'0 0.0
2017-Dec-14 06:56N 35°04' E 136°51'0 0.0
2017-Dec-14 06:26N 35°04' E 136°51'0 0.0
2017-Dec-14 06:00N 35°04' E 136°51'0 0.0
2017-Dec-14 05:29N 35°04' E 136°51'0 0.0
2017-Dec-14 04:58N 35°04' E 136°51'0 0.0
2017-Dec-14 04:24N 35°04' E 136°51'0 0.0
2017-Dec-14 04:00N 35°04' E 136°51'0 0.0
2017-Dec-14 03:30N 35°04' E 136°51'0 0.0
2017-Dec-14 03:00N 35°04' E 136°51'0 0.0
2017-Dec-14 02:27N 35°04' E 136°51'0 0.0
2017-Dec-14 02:00N 35°04' E 136°51'0 0.0
2017-Dec-14 01:30N 35°04' E 136°51'2 3.7
2017-Dec-14 01:00N 35°02' E 136°51'611.8
2017-Dec-14 00:31N 34°57' E 136°46'918.8
2017-Dec-14 00:01N 34°48' E 136°47'918.9
2017-Dec-13 23:30N 34°40' E 136°53'917.2
2017-Dec-13 23:00N 34°33' E 137°01'916.9
2017-Dec-13 22:29N 34°32' E 137°11'918.9
2017-Dec-13 22:00N 34°32' E 137°22'1019.7
2017-Dec-13 21:30N 34°32' E 137°34'1020.2
2017-Dec-13 21:01N 34°31' E 137°46'1020.3
2017-Dec-13 20:30N 34°31' E 137°58'1019.9
2017-Dec-13 20:00N 34°29' E 138°10'1019.2
2017-Dec-13 19:31N 34°29' E 138°22'1119.7
2017-Dec-13 18:57N 34°29' E 138°36'818.6
2017-Dec-13 18:30N 34°29' E 138°46'918.4
2017-Dec-13 18:01N 34°29' E 138°56'1019.4
2017-Dec-13 17:30N 34°33' E 139°07'1020.0
2017-Dec-13 16:59N 34°36' E 139°19'919.5
2017-Dec-13 16:31N 34°38' E 139°30'1019.3
2017-Dec-13 16:00N 34°42' E 139°41'1020.2
2017-Dec-13 15:29N 34°47' E 139°53'1021.2
2017-Dec-13 15:00N 34°52' E 140°03'1020.8
2017-Dec-13 14:30N 34°58' E 140°14'37815.7
2017-Dec-12 14:26N 41°09' E 141°41'1320.7
2017-Dec-12 13:47N 41°23' E 141°39'621.2
2017-Dec-12 13:30N 41°29' E 141°38'1221.9
2017-Dec-12 12:58N 41°41' E 141°36'5 0.3
2017-Dec-11 22:22N 41°36' E 141°35'720.1
2017-Dec-11 22:01N 41°29' E 141°35'39515.3
2017-Dec-10 20:15N 34°59' E 140°13'521.6
2017-Dec-10 20:00N 34°56' E 140°08'1421.2
2017-Dec-10 19:20N 34°48' E 139°54'1619.8
2017-Dec-10 18:33N 34°40' E 139°37'421.5
2017-Dec-10 18:23N 34°39' E 139°33'1121.5
2017-Dec-10 17:51N 34°36' E 139°20'1222.0
2017-Dec-10 17:19N 34°33' E 139°06'721.0
2017-Dec-10 17:00N 34°31' E 138°58'1121.3
2017-Dec-10 16:30N 34°29' E 138°45'1221.8
2017-Dec-10 15:58N 34°28' E 138°31'1021.3
2017-Dec-10 15:30N 34°27' E 138°19'1420.2
2017-Dec-10 14:49N 34°28' E 138°02'619.7
2017-Dec-10 14:29N 34°29' E 137°55'1219.9
2017-Dec-10 13:54N 34°29' E 137°41'1220.2
2017-Dec-10 13:18N 34°30' E 137°26'820.2
2017-Dec-10 12:55N 34°30' E 137°16'1219.8
2017-Dec-10 12:19N 34°32' E 137°02'514.6
2017-Dec-10 12:00N 34°35' E 136°58'1019.7
2017-Dec-10 11:30N 34°41' E 136°49'1019.5
2017-Dec-10 11:00N 34°50' E 136°45'918.9
2017-Dec-10 10:30N 34°59' E 136°49'5 9.4
2017-Dec-10 10:00N 35°04' E 136°51'0 0.0
2017-Dec-10 09:30N 35°04' E 136°51'0 0.0
2017-Dec-10 09:00N 35°04' E 136°51'0 0.0
2017-Dec-10 08:30N 35°04' E 136°51'0 0.0
2017-Dec-10 08:00N 35°04' E 136°51'0 0.0
2017-Dec-10 07:30N 35°04' E 136°51'0 0.0
2017-Dec-10 07:00N 35°04' E 136°51'0 0.0
2017-Dec-10 06:30N 35°04' E 136°51'0 0.0
2017-Dec-10 06:00N 35°04' E 136°51'0 0.9
2017-Dec-10 05:31N 35°03' E 136°50'611.2
2017-Dec-10 05:00N 34°58' E 136°48'613.0
2017-Dec-10 04:30N 34°52' E 136°46'1 2.5
2017-Dec-10 04:01N 34°53' E 136°46'713.5
2017-Dec-10 03:30N 34°59' E 136°49'5 9.2
2017-Dec-10 03:01N 35°04' E 136°51'0 0.0
2017-Dec-10 02:30N 35°04' E 136°51'0 0.0
2017-Dec-10 01:58N 35°04' E 136°51'0 0.0
2017-Dec-10 01:28N 35°04' E 136°51'0 0.0
2017-Dec-10 00:55N 35°04' E 136°51'0 0.0
2017-Dec-10 00:30N 35°04' E 136°51'3 5.6
2017-Dec-10 00:01N 35°01' E 136°49'815.7
2017-Dec-09 23:30N 34°54' E 136°46'1020.1
2017-Dec-09 23:00N 34°44' E 136°48'1020.9
2017-Dec-09 22:30N 34°36' E 136°57'916.4
2017-Dec-09 21:56N 34°30' E 137°06'922.0
2017-Dec-09 21:30N 34°30' E 137°17'1522.0
2017-Dec-09 20:49N 34°31' E 137°36'722.0
2017-Dec-09 20:30N 34°31' E 137°44'1121.8
2017-Dec-09 19:59N 34°30' E 137°58'1120.7
2017-Dec-09 19:29N 34°30' E 138°10'920.0
2017-Dec-09 19:00N 34°30' E 138°22'1120.5
2017-Dec-09 18:29N 34°30' E 138°35'1020.5
2017-Dec-09 17:59N 34°30' E 138°47'919.8
2017-Dec-09 17:30N 34°31' E 138°59'1019.6
2017-Dec-09 17:00N 34°33' E 139°10'1019.6
2017-Dec-09 16:30N 34°36' E 139°22'1019.9
2017-Dec-09 16:00N 34°39' E 139°33'1120.0
2017-Dec-09 15:28N 34°44' E 139°45'920.6
2017-Dec-09 15:00N 34°49' E 139°55'1120.9
2017-Dec-09 14:30N 34°54' E 140°06'1019.8
2017-Dec-09 13:59N 34°60' E 140°16'918.9
2017-Dec-09 13:30N 35°04' E 140°26'37916.2
2017-Dec-08 14:04N 41°18' E 141°49'921.1
2017-Dec-08 13:38N 41°27' E 141°47'321.9
2017-Dec-08 13:29N 41°30' E 141°46'1121.5
2017-Dec-08 12:59N 41°41' E 141°44'1020.9
2017-Dec-08 12:30N 41°51' E 141°43'  
Track history (hours):
 
Tides and Currents Weather Stations Pressure Air Temp Water Temp Dewpoint Dewpoint Depression Visibility Wind Speed Wind Dir Waves Ship Positions

Kiso

Last reported at 2017-Dec-15 22:14 UTC. Time now 2017-Dec-16 12:42 UTC.
Position N 41°33' E 141°50'.

Length 200 m; draft 6.7 m.

Type: Passenger vessel. MMSI: 431200673.

Date/timePositionNaut miles runAvg speedWind from/ knotsBaromVisibWave heightAir tempDewpointWater temp
2017-Dec-15 22:14N 41°33' E 141°50'43115.5
2017-Dec-14 18:29N 34°37' E 139°27'1120.0
2017-Dec-14 17:56N 34°35' E 139°14'920.4
2017-Dec-14 17:29N 34°32' E 139°04'1020.6
2017-Dec-14 17:00N 34°31' E 138°52'1121.0
2017-Dec-14 16:30N 34°31' E 138°39'1021.2
2017-Dec-14 16:00N 34°30' E 138°26'2119.9
2017-Dec-14 14:57N 34°29' E 138°01'919.5
2017-Dec-14 14:30N 34°30' E 137°50'1019.2
2017-Dec-14 14:00N 34°29' E 137°39'2819.2
2017-Dec-14 12:32N 34°31' E 137°04'119.3
2017-Dec-14 12:27N 34°32' E 137°03'1115.3
2017-Dec-14 11:46N 34°38' E 136°52'520.2
2017-Dec-14 11:30N 34°42' E 136°48'1020.0
2017-Dec-14 11:01N 34°52' E 136°45'1019.2
2017-Dec-14 10:30N 35°00' E 136°50'3 6.6
2017-Dec-14 10:01N 35°04' E 136°51'0 0.0
2017-Dec-14 09:31N 35°04' E 136°51'0 0.0
2017-Dec-14 08:56N 35°04' E 136°51'0 0.0
2017-Dec-14 08:26N 35°04' E 136°51'0 0.0
2017-Dec-14 07:56N 35°04' E 136°51'0 0.0
2017-Dec-14 07:26N 35°04' E 136°51'0 0.0
2017-Dec-14 06:56N 35°04' E 136°51'0 0.0
2017-Dec-14 06:26N 35°04' E 136°51'0 0.0
2017-Dec-14 06:00N 35°04' E 136°51'0 0.0
2017-Dec-14 05:29N 35°04' E 136°51'0 0.0
2017-Dec-14 04:58N 35°04' E 136°51'0 0.0
2017-Dec-14 04:24N 35°04' E 136°51'0 0.0
2017-Dec-14 04:00N 35°04' E 136°51'0 0.0
2017-Dec-14 03:30N 35°04' E 136°51'0 0.0
2017-Dec-14 03:00N 35°04' E 136°51'0 0.0
2017-Dec-14 02:27N 35°04' E 136°51'0 0.0
2017-Dec-14 02:00N 35°04' E 136°51'0 0.0
2017-Dec-14 01:30N 35°04' E 136°51'2 3.7
2017-Dec-14 01:00N 35°02' E 136°51'611.8
2017-Dec-14 00:31N 34°57' E 136°46'918.8
2017-Dec-14 00:01N 34°48' E 136°47'918.9
2017-Dec-13 23:30N 34°40' E 136°53'917.2
2017-Dec-13 23:00N 34°33' E 137°01'916.9
2017-Dec-13 22:29N 34°32' E 137°11'918.9
2017-Dec-13 22:00N 34°32' E 137°22'1019.7
2017-Dec-13 21:30N 34°32' E 137°34'1020.2
2017-Dec-13 21:01N 34°31' E 137°46'1020.3
2017-Dec-13 20:30N 34°31' E 137°58'1019.9
2017-Dec-13 20:00N 34°29' E 138°10'1019.2
2017-Dec-13 19:31N 34°29' E 138°22'1119.7
2017-Dec-13 18:57N 34°29' E 138°36'818.6
2017-Dec-13 18:30N 34°29' E 138°46'918.4
2017-Dec-13 18:01N 34°29' E 138°56'1019.4
2017-Dec-13 17:30N 34°33' E 139°07'1020.0
2017-Dec-13 16:59N 34°36' E 139°19'919.5
2017-Dec-13 16:31N 34°38' E 139°30'1019.3
2017-Dec-13 16:00N 34°42' E 139°41'1020.2
2017-Dec-13 15:29N 34°47' E 139°53'1021.2
2017-Dec-13 15:00N 34°52' E 140°03'1020.8
2017-Dec-13 14:30N 34°58' E 140°14'37815.7
2017-Dec-12 14:26N 41°09' E 141°41'1320.7
2017-Dec-12 13:47N 41°23' E 141°39'621.2
2017-Dec-12 13:30N 41°29' E 141°38'1221.9
2017-Dec-12 12:58N 41°41' E 141°36'5 0.3
2017-Dec-11 22:22N 41°36' E 141°35'720.1
2017-Dec-11 22:01N 41°29' E 141°35'39515.3
2017-Dec-10 20:15N 34°59' E 140°13'521.6
2017-Dec-10 20:00N 34°56' E 140°08'1421.2
2017-Dec-10 19:20N 34°48' E 139°54'1619.8
2017-Dec-10 18:33N 34°40' E 139°37'421.5
2017-Dec-10 18:23N 34°39' E 139°33'1121.5
2017-Dec-10 17:51N 34°36' E 139°20'1222.0
2017-Dec-10 17:19N 34°33' E 139°06'721.0
2017-Dec-10 17:00N 34°31' E 138°58'1121.3
2017-Dec-10 16:30N 34°29' E 138°45'1221.8
2017-Dec-10 15:58N 34°28' E 138°31'1021.3
2017-Dec-10 15:30N 34°27' E 138°19'1420.2
2017-Dec-10 14:49N 34°28' E 138°02'619.7
2017-Dec-10 14:29N 34°29' E 137°55'1219.9
2017-Dec-10 13:54N 34°29' E 137°41'1220.2
2017-Dec-10 13:18N 34°30' E 137°26'820.2
2017-Dec-10 12:55N 34°30' E 137°16'1219.8
2017-Dec-10 12:19N 34°32' E 137°02'514.6
2017-Dec-10 12:00N 34°35' E 136°58'1019.7
2017-Dec-10 11:30N 34°41' E 136°49'1019.5
2017-Dec-10 11:00N 34°50' E 136°45'918.9
2017-Dec-10 10:30N 34°59' E 136°49'5 9.4
2017-Dec-10 10:00N 35°04' E 136°51'0 0.0
2017-Dec-10 09:30N 35°04' E 136°51'0 0.0
2017-Dec-10 09:00N 35°04' E 136°51'0 0.0
2017-Dec-10 08:30N 35°04' E 136°51'0 0.0
2017-Dec-10 08:00N 35°04' E 136°51'0 0.0
2017-Dec-10 07:30N 35°04' E 136°51'0 0.0
2017-Dec-10 07:00N 35°04' E 136°51'0 0.0
2017-Dec-10 06:30N 35°04' E 136°51'0 0.0
2017-Dec-10 06:00N 35°04' E 136°51'0 0.9
2017-Dec-10 05:31N 35°03' E 136°50'611.2
2017-Dec-10 05:00N 34°58' E 136°48'613.0
2017-Dec-10 04:30N 34°52' E 136°46'1 2.5
2017-Dec-10 04:01N 34°53' E 136°46'713.5
2017-Dec-10 03:30N 34°59' E 136°49'5 9.2
2017-Dec-10 03:01N 35°04' E 136°51'0 0.0
2017-Dec-10 02:30N 35°04' E 136°51'0 0.0
2017-Dec-10 01:58N 35°04' E 136°51'0 0.0
2017-Dec-10 01:28N 35°04' E 136°51'0 0.0
2017-Dec-10 00:55N 35°04' E 136°51'0 0.0
2017-Dec-10 00:30N 35°04' E 136°51'3 5.6
2017-Dec-10 00:01N 35°01' E 136°49'815.7
2017-Dec-09 23:30N 34°54' E 136°46'1020.1
2017-Dec-09 23:00N 34°44' E 136°48'1020.9
2017-Dec-09 22:30N 34°36' E 136°57'916.4
2017-Dec-09 21:56N 34°30' E 137°06'922.0
2017-Dec-09 21:30N 34°30' E 137°17'1522.0
2017-Dec-09 20:49N 34°31' E 137°36'722.0
2017-Dec-09 20:30N 34°31' E 137°44'1121.8
2017-Dec-09 19:59N 34°30' E 137°58'1120.7
2017-Dec-09 19:29N 34°30' E 138°10'920.0
2017-Dec-09 19:00N 34°30' E 138°22'1120.5
2017-Dec-09 18:29N 34°30' E 138°35'1020.5
2017-Dec-09 17:59N 34°30' E 138°47'919.8
2017-Dec-09 17:30N 34°31' E 138°59'1019.6
2017-Dec-09 17:00N 34°33' E 139°10'1019.6
2017-Dec-09 16:30N 34°36' E 139°22'1019.9
2017-Dec-09 16:00N 34°39' E 139°33'1120.0
2017-Dec-09 15:28N 34°44' E 139°45'920.6
2017-Dec-09 15:00N 34°49' E 139°55'1120.9
2017-Dec-09 14:30N 34°54' E 140°06'1019.8
2017-Dec-09 13:59N 34°60' E 140°16'918.9
2017-Dec-09 13:30N 35°04' E 140°26'37916.2
2017-Dec-08 14:04N 41°18' E 141°49'921.1
2017-Dec-08 13:38N 41°27' E 141°47'321.9
2017-Dec-08 13:29N 41°30' E 141°46'1121.5
2017-Dec-08 12:59N 41°41' E 141°44'1020.9
2017-Dec-08 12:30N 41°51' E 141°43'  

Dump ship's entire track history